logo
Search for airport 
image banner adimage banner adimage banner ad
image banner ad

YRBPL - Ruby Plains Station

Located in Sturt Creek, Australia

ICAO - , IATA -

Data provided by Airmate  

General information

Coordinates: S18°36'50" E127°38'38"
Elevation is 1510 feet MSL.
Magnetic variation is 3° East
View others Airports in Western Australia

Operational data

Special qualification required
Current time UTC:
Current local time:
Weather at : - ( 0 km )
METAR: OPLA 171225Z 00000KT 4000 FU SCT040 SCT100 38/26 Q0997 NOSIG RMK QFE972 A29.45
View NOTAMs / SUP AIP / TFR affecting this airport [VIEW]
Communications frequencies: [VIEW]

Runways:

RWY identifierQFULength (ft)Width (ft)SurfaceLDA (ft)
0334°5981154DIRT
21214°5981154DIRT

Airport contact information

Address: Sturt Creek Australia

Satellite view of YRBPL